sensor_id;sensor_type;location;lat;lon;timestamp;P1;durP1;ratioP1;P2;durP2;ratioP2
47025;SDS011;32783;51.756;-2.556;2023-04-24T00:00:55;1.88;;;1.70;;
47025;SDS011;32783;51.756;-2.556;2023-04-24T00:03:26;1.55;;;1.40;;
47025;SDS011;32783;51.756;-2.556;2023-04-24T00:05:52;2.38;;;2.17;;
47025;SDS011;32783;51.756;-2.556;2023-04-24T00:08:18;1.90;;;1.70;;
47025;SDS011;32783;51.756;-2.556;2023-04-24T00:10:44;1.70;;;1.60;;
47025;SDS011;32783;51.756;-2.556;2023-04-24T00:13:09;2.00;;;1.55;;
47025;SDS011;32783;51.756;-2.556;2023-04-24T00:15:34;1.48;;;1.38;;
47025;SDS011;32783;51.756;-2.556;2023-04-24T00:18:00;1.73;;;1.40;;
47025;SDS011;32783;51.756;-2.556;2023-04-24T00:20:28;1.60;;;1.50;;
47025;SDS011;32783;51.756;-2.556;2023-04-24T00:23:03;1.60;;;1.50;;
47025;SDS011;32783;51.756;-2.556;2023-04-24T00:25:28;1.50;;;1.40;;
47025;SDS011;32783;51.756;-2.556;2023-04-24T00:27:54;1.33;;;1.23;;
47025;SDS011;32783;51.756;-2.556;2023-04-24T00:30:19;2.72;;;1.50;;
47025;SDS011;32783;51.756;-2.556;2023-04-24T00:32:45;1.50;;;1.40;;
47025;SDS011;32783;51.756;-2.556;2023-04-24T00:35:10;1.80;;;1.60;;
47025;SDS011;32783;51.756;-2.556;2023-04-24T00:37:36;1.50;;;1.40;;
47025;SDS011;32783;51.756;-2.556;2023-04-24T00:40:01;1.60;;;1.50;;
47025;SDS011;32783;51.756;-2.556;2023-04-24T00:42:27;2.35;;;2.15;;
47025;SDS011;32783;51.756;-2.556;2023-04-24T00:44:53;1.58;;;1.48;;
47025;SDS011;32783;51.756;-2.556;2023-04-24T00:47:18;1.60;;;1.45;;
47025;SDS011;32783;51.756;-2.556;2023-04-24T00:49:44;1.90;;;1.80;;
47025;SDS011;32783;51.756;-2.556;2023-04-24T00:52:10;1.80;;;1.55;;
47025;SDS011;32783;51.756;-2.556;2023-04-24T00:54:37;2.00;;;1.58;;
47025;SDS011;32783;51.756;-2.556;2023-04-24T00:57:03;1.75;;;1.65;;
47025;SDS011;32783;51.756;-2.556;2023-04-24T00:59:28;1.40;;;1.30;;
47025;SDS011;32783;51.756;-2.556;2023-04-24T01:01:55;1.40;;;1.30;;
47025;SDS011;32783;51.756;-2.556;2023-04-24T01:04:21;2.80;;;1.90;;
47025;SDS011;32783;51.756;-2.556;2023-04-24T01:06:46;1.73;;;1.60;;
47025;SDS011;32783;51.756;-2.556;2023-04-24T01:09:12;1.95;;;1.50;;
47025;SDS011;32783;51.756;-2.556;2023-04-24T01:11:37;1.75;;;1.65;;
47025;SDS011;32783;51.756;-2.556;2023-04-24T01:14:03;1.35;;;1.25;;
47025;SDS011;32783;51.756;-2.556;2023-04-24T01:16:28;1.67;;;1.58;;
47025;SDS011;32783;51.756;-2.556;2023-04-24T01:18:54;1.50;;;1.40;;
47025;SDS011;32783;51.756;-2.556;2023-04-24T01:21:20;1.58;;;1.48;;
47025;SDS011;32783;51.756;-2.556;2023-04-24T01:23:46;1.70;;;1.60;;
47025;SDS011;32783;51.756;-2.556;2023-04-24T01:26:12;1.75;;;1.65;;
47025;SDS011;32783;51.756;-2.556;2023-04-24T01:28:41;1.50;;;1.40;;
47025;SDS011;32783;51.756;-2.556;2023-04-24T01:31:06;1.75;;;1.65;;
47025;SDS011;32783;51.756;-2.556;2023-04-24T01:33:32;1.63;;;1.52;;
47025;SDS011;32783;51.756;-2.556;2023-04-24T01:35:58;1.40;;;1.25;;
47025;SDS011;32783;51.756;-2.556;2023-04-24T01:38:24;1.48;;;1.35;;
47025;SDS011;32783;51.756;-2.556;2023-04-24T01:40:50;1.30;;;1.20;;
47025;SDS011;32783;51.756;-2.556;2023-04-24T01:43:16;1.60;;;1.50;;
47025;SDS011;32783;51.756;-2.556;2023-04-24T01:45:41;1.70;;;1.60;;
47025;SDS011;32783;51.756;-2.556;2023-04-24T01:48:07;1.65;;;1.55;;
47025;SDS011;32783;51.756;-2.556;2023-04-24T01:50:32;1.45;;;1.35;;
47025;SDS011;32783;51.756;-2.556;2023-04-24T01:52:57;1.73;;;1.63;;
47025;SDS011;32783;51.756;-2.556;2023-04-24T01:55:23;1.63;;;1.52;;
47025;SDS011;32783;51.756;-2.556;2023-04-24T01:57:48;1.42;;;1.33;;
47025;SDS011;32783;51.756;-2.556;2023-04-24T02:00:15;1.48;;;1.38;;
47025;SDS011;32783;51.756;-2.556;2023-04-24T02:02:40;1.70;;;1.60;;
47025;SDS011;32783;51.756;-2.556;2023-04-24T02:05:06;1.48;;;1.35;;
47025;SDS011;32783;51.756;-2.556;2023-04-24T02:07:33;2.35;;;1.55;;
47025;SDS011;32783;51.756;-2.556;2023-04-24T02:09:58;1.48;;;1.38;;
47025;SDS011;32783;51.756;-2.556;2023-04-24T02:12:24;1.55;;;1.45;;
47025;SDS011;32783;51.756;-2.556;2023-04-24T02:14:49;1.90;;;1.48;;
47025;SDS011;32783;51.756;-2.556;2023-04-24T02:17:15;1.60;;;1.50;;
47025;SDS011;32783;51.756;-2.556;2023-04-24T02:19:41;1.45;;;1.35;;
47025;SDS011;32783;51.756;-2.556;2023-04-24T02:22:06;1.70;;;1.60;;
47025;SDS011;32783;51.756;-2.556;2023-04-24T02:24:32;1.60;;;1.50;;
47025;SDS011;32783;51.756;-2.556;2023-04-24T02:26:57;1.50;;;1.40;;
47025;SDS011;32783;51.756;-2.556;2023-04-24T02:29:23;1.48;;;1.30;;
47025;SDS011;32783;51.756;-2.556;2023-04-24T02:31:48;1.25;;;1.15;;
47025;SDS011;32783;51.756;-2.556;2023-04-24T02:34:13;1.45;;;1.33;;
47025;SDS011;32783;51.756;-2.556;2023-04-24T02:36:39;1.50;;;1.40;;
47025;SDS011;32783;51.756;-2.556;2023-04-24T02:39:04;1.83;;;1.73;;
47025;SDS011;32783;51.756;-2.556;2023-04-24T02:41:30;1.63;;;1.52;;
47025;SDS011;32783;51.756;-2.556;2023-04-24T02:44:00;1.63;;;1.52;;
47025;SDS011;32783;51.756;-2.556;2023-04-24T02:46:25;1.60;;;1.50;;
47025;SDS011;32783;51.756;-2.556;2023-04-24T02:48:51;1.70;;;1.60;;
47025;SDS011;32783;51.756;-2.556;2023-04-24T02:51:16;1.83;;;1.30;;
47025;SDS011;32783;51.756;-2.556;2023-04-24T02:53:42;1.65;;;1.55;;
47025;SDS011;32783;51.756;-2.556;2023-04-24T02:56:07;1.27;;;1.17;;
47025;SDS011;32783;51.756;-2.556;2023-04-24T02:58:33;1.88;;;1.40;;
47025;SDS011;32783;51.756;-2.556;2023-04-24T03:00:58;1.77;;;1.38;;
47025;SDS011;32783;51.756;-2.556;2023-04-24T03:03:24;1.20;;;1.10;;
47025;SDS011;32783;51.756;-2.556;2023-04-24T03:05:50;1.52;;;1.42;;
47025;SDS011;32783;51.756;-2.556;2023-04-24T03:08:15;1.65;;;1.55;;
47025;SDS011;32783;51.756;-2.556;2023-04-24T03:10:41;1.63;;;1.50;;
47025;SDS011;32783;51.756;-2.556;2023-04-24T03:13:06;1.50;;;1.40;;
47025;SDS011;32783;51.756;-2.556;2023-04-24T03:15:32;1.52;;;1.42;;
47025;SDS011;32783;51.756;-2.556;2023-04-24T03:17:57;1.50;;;1.40;;
47025;SDS011;32783;51.756;-2.556;2023-04-24T03:20:23;2.00;;;1.05;;
47025;SDS011;32783;51.756;-2.556;2023-04-24T03:22:48;1.10;;;1.00;;
47025;SDS011;32783;51.756;-2.556;2023-04-24T03:25:14;1.30;;;1.20;;
47025;SDS011;32783;51.756;-2.556;2023-04-24T03:27:39;1.27;;;1.17;;
47025;SDS011;32783;51.756;-2.556;2023-04-24T03:30:05;1.30;;;1.20;;
47025;SDS011;32783;51.756;-2.556;2023-04-24T03:32:32;1.02;;;0.93;;
47025;SDS011;32783;51.756;-2.556;2023-04-24T03:34:57;1.23;;;1.10;;
47025;SDS011;32783;51.756;-2.556;2023-04-24T03:37:22;1.20;;;1.10;;
47025;SDS011;32783;51.756;-2.556;2023-04-24T03:39:48;1.30;;;1.20;;
47025;SDS011;32783;51.756;-2.556;2023-04-24T03:42:13;1.70;;;1.20;;
47025;SDS011;32783;51.756;-2.556;2023-04-24T03:44:38;1.77;;;1.67;;
47025;SDS011;32783;51.756;-2.556;2023-04-24T03:47:04;1.40;;;1.30;;
47025;SDS011;32783;51.756;-2.556;2023-04-24T03:49:29;1.45;;;1.30;;
47025;SDS011;32783;51.756;-2.556;2023-04-24T03:51:55;1.27;;;1.10;;
47025;SDS011;32783;51.756;-2.556;2023-04-24T03:54:20;1.40;;;1.30;;
47025;SDS011;32783;51.756;-2.556;2023-04-24T03:56:46;1.38;;;1.10;;
47025;SDS011;32783;51.756;-2.556;2023-04-24T03:59:11;1.40;;;1.30;;
47025;SDS011;32783;51.756;-2.556;2023-04-24T04:01:36;1.65;;;1.55;;
47025;SDS011;32783;51.756;-2.556;2023-04-24T04:04:05;1.20;;;1.10;;
47025;SDS011;32783;51.756;-2.556;2023-04-24T04:06:31;1.40;;;1.30;;
47025;SDS011;32783;51.756;-2.556;2023-04-24T04:08:57;1.20;;;1.10;;
47025;SDS011;32783;51.756;-2.556;2023-04-24T04:11:23;1.30;;;1.20;;
47025;SDS011;32783;51.756;-2.556;2023-04-24T04:13:48;0.88;;;0.88;;
47025;SDS011;32783;51.756;-2.556;2023-04-24T04:16:14;1.38;;;1.10;;
47025;SDS011;32783;51.756;-2.556;2023-04-24T04:18:41;1.10;;;0.98;;
47025;SDS011;32783;51.756;-2.556;2023-04-24T04:21:07;1.00;;;1.00;;
47025;SDS011;32783;51.756;-2.556;2023-04-24T04:23:32;1.10;;;1.00;;
47025;SDS011;32783;51.756;-2.556;2023-04-24T04:25:58;1.40;;;1.30;;
47025;SDS011;32783;51.756;-2.556;2023-04-24T04:28:23;1.48;;;1.10;;
47025;SDS011;32783;51.756;-2.556;2023-04-24T04:30:49;1.40;;;1.30;;
47025;SDS011;32783;51.756;-2.556;2023-04-24T04:33:18;1.92;;;1.60;;
47025;SDS011;32783;51.756;-2.556;2023-04-24T04:35:45;1.23;;;1.13;;
47025;SDS011;32783;51.756;-2.556;2023-04-24T04:38:13;1.15;;;1.05;;
47025;SDS011;32783;51.756;-2.556;2023-04-24T04:40:39;1.35;;;1.25;;
47025;SDS011;32783;51.756;-2.556;2023-04-24T04:43:05;1.50;;;1.40;;
47025;SDS011;32783;51.756;-2.556;2023-04-24T04:45:31;1.00;;;0.90;;
47025;SDS011;32783;51.756;-2.556;2023-04-24T04:47:57;1.15;;;1.05;;
47025;SDS011;32783;51.756;-2.556;2023-04-24T04:50:25;1.30;;;1.20;;
47025;SDS011;32783;51.756;-2.556;2023-04-24T04:52:51;2.08;;;1.30;;
47025;SDS011;32783;51.756;-2.556;2023-04-24T04:55:17;1.80;;;1.38;;
47025;SDS011;32783;51.756;-2.556;2023-04-24T04:57:43;1.00;;;1.00;;
47025;SDS011;32783;51.756;-2.556;2023-04-24T05:00:08;0.90;;;0.90;;
47025;SDS011;32783;51.756;-2.556;2023-04-24T05:02:35;1.17;;;1.08;;
47025;SDS011;32783;51.756;-2.556;2023-04-24T05:05:01;1.25;;;0.90;;
47025;SDS011;32783;51.756;-2.556;2023-04-24T05:07:26;1.42;;;1.33;;
47025;SDS011;32783;51.756;-2.556;2023-04-24T05:09:51;1.00;;;0.90;;
47025;SDS011;32783;51.756;-2.556;2023-04-24T05:12:17;1.30;;;1.20;;
47025;SDS011;32783;51.756;-2.556;2023-04-24T05:14:42;1.08;;;0.90;;
47025;SDS011;32783;51.756;-2.556;2023-04-24T05:17:08;0.90;;;0.90;;
47025;SDS011;32783;51.756;-2.556;2023-04-24T05:19:33;1.08;;;0.95;;
47025;SDS011;32783;51.756;-2.556;2023-04-24T05:22:00;1.30;;;1.20;;
47025;SDS011;32783;51.756;-2.556;2023-04-24T05:24:28;1.13;;;1.02;;
47025;SDS011;32783;51.756;-2.556;2023-04-24T05:26:53;1.60;;;1.15;;
47025;SDS011;32783;51.756;-2.556;2023-04-24T05:29:19;1.33;;;1.00;;
47025;SDS011;32783;51.756;-2.556;2023-04-24T05:31:45;1.75;;;1.00;;
47025;SDS011;32783;51.756;-2.556;2023-04-24T05:34:10;1.10;;;1.00;;
47025;SDS011;32783;51.756;-2.556;2023-04-24T05:36:37;1.40;;;1.10;;
47025;SDS011;32783;51.756;-2.556;2023-04-24T05:39:02;1.00;;;1.00;;
47025;SDS011;32783;51.756;-2.556;2023-04-24T05:41:30;0.80;;;0.80;;
47025;SDS011;32783;51.756;-2.556;2023-04-24T05:43:55;1.05;;;0.95;;
47025;SDS011;32783;51.756;-2.556;2023-04-24T05:46:20;0.73;;;0.73;;
47025;SDS011;32783;51.756;-2.556;2023-04-24T05:48:46;1.02;;;0.90;;
47025;SDS011;32783;51.756;-2.556;2023-04-24T05:51:12;0.80;;;0.80;;
47025;SDS011;32783;51.756;-2.556;2023-04-24T05:53:37;1.33;;;0.95;;
47025;SDS011;32783;51.756;-2.556;2023-04-24T05:56:02;1.13;;;1.02;;
47025;SDS011;32783;51.756;-2.556;2023-04-24T05:58:28;1.02;;;1.00;;
47025;SDS011;32783;51.756;-2.556;2023-04-24T06:00:53;1.08;;;0.98;;
47025;SDS011;32783;51.756;-2.556;2023-04-24T06:03:20;0.75;;;0.75;;
47025;SDS011;32783;51.756;-2.556;2023-04-24T06:05:45;1.20;;;0.88;;
47025;SDS011;32783;51.756;-2.556;2023-04-24T06:08:11;1.15;;;1.05;;
47025;SDS011;32783;51.756;-2.556;2023-04-24T06:10:36;1.00;;;1.00;;
47025;SDS011;32783;51.756;-2.556;2023-04-24T06:13:02;1.02;;;0.90;;
47025;SDS011;32783;51.756;-2.556;2023-04-24T06:15:30;1.02;;;0.93;;
47025;SDS011;32783;51.756;-2.556;2023-04-24T06:17:58;1.10;;;1.00;;
47025;SDS011;32783;51.756;-2.556;2023-04-24T06:20:23;1.42;;;1.20;;
47025;SDS011;32783;51.756;-2.556;2023-04-24T06:22:49;1.00;;;0.90;;
47025;SDS011;32783;51.756;-2.556;2023-04-24T06:25:15;2.03;;;1.00;;
47025;SDS011;32783;51.756;-2.556;2023-04-24T06:27:40;2.38;;;1.33;;
47025;SDS011;32783;51.756;-2.556;2023-04-24T06:30:06;0.88;;;0.80;;
47025;SDS011;32783;51.756;-2.556;2023-04-24T06:32:32;1.55;;;0.93;;
47025;SDS011;32783;51.756;-2.556;2023-04-24T06:34:57;1.30;;;1.10;;
47025;SDS011;32783;51.756;-2.556;2023-04-24T06:37:23;1.08;;;0.98;;
47025;SDS011;32783;51.756;-2.556;2023-04-24T06:39:48;0.98;;;0.90;;
47025;SDS011;32783;51.756;-2.556;2023-04-24T06:42:13;0.88;;;0.85;;
47025;SDS011;32783;51.756;-2.556;2023-04-24T06:44:39;1.30;;;1.10;;
47025;SDS011;32783;51.756;-2.556;2023-04-24T06:47:08;1.20;;;1.07;;
47025;SDS011;32783;51.756;-2.556;2023-04-24T06:49:38;1.05;;;0.95;;
47025;SDS011;32783;51.756;-2.556;2023-04-24T06:52:04;0.60;;;0.60;;
47025;SDS011;32783;51.756;-2.556;2023-04-24T06:54:30;2.20;;;1.25;;
47025;SDS011;32783;51.756;-2.556;2023-04-24T06:56:56;0.80;;;0.80;;
47025;SDS011;32783;51.756;-2.556;2023-04-24T06:59:22;1.00;;;0.90;;
47025;SDS011;32783;51.756;-2.556;2023-04-24T07:01:48;1.10;;;1.08;;
47025;SDS011;32783;51.756;-2.556;2023-04-24T07:04:14;1.00;;;0.90;;
47025;SDS011;32783;51.756;-2.556;2023-04-24T07:06:39;1.60;;;0.90;;
47025;SDS011;32783;51.756;-2.556;2023-04-24T07:09:05;1.70;;;0.98;;
47025;SDS011;32783;51.756;-2.556;2023-04-24T07:11:30;1.55;;;1.10;;
47025;SDS011;32783;51.756;-2.556;2023-04-24T07:13:56;1.15;;;1.05;;
47025;SDS011;32783;51.756;-2.556;2023-04-24T07:16:21;1.00;;;0.90;;
47025;SDS011;32783;51.756;-2.556;2023-04-24T07:18:47;1.25;;;1.05;;
47025;SDS011;32783;51.756;-2.556;2023-04-24T07:21:12;1.60;;;1.10;;
47025;SDS011;32783;51.756;-2.556;2023-04-24T07:23:38;1.33;;;0.90;;
47025;SDS011;32783;51.756;-2.556;2023-04-24T07:26:03;1.02;;;0.70;;
47025;SDS011;32783;51.756;-2.556;2023-04-24T07:28:29;2.38;;;1.05;;
47025;SDS011;32783;51.756;-2.556;2023-04-24T07:30:57;1.10;;;1.00;;
47025;SDS011;32783;51.756;-2.556;2023-04-24T07:33:24;1.98;;;1.13;;
47025;SDS011;32783;51.756;-2.556;2023-04-24T07:35:50;1.30;;;1.20;;
47025;SDS011;32783;51.756;-2.556;2023-04-24T07:38:16;1.20;;;1.05;;
47025;SDS011;32783;51.756;-2.556;2023-04-24T07:40:41;1.50;;;1.10;;
47025;SDS011;32783;51.756;-2.556;2023-04-24T07:43:07;0.90;;;0.80;;
47025;SDS011;32783;51.756;-2.556;2023-04-24T07:45:32;0.93;;;0.85;;
47025;SDS011;32783;51.756;-2.556;2023-04-24T07:48:02;2.72;;;0.93;;
47025;SDS011;32783;51.756;-2.556;2023-04-24T07:50:27;1.55;;;1.17;;
47025;SDS011;32783;51.756;-2.556;2023-04-24T07:52:52;3.95;;;1.00;;
47025;SDS011;32783;51.756;-2.556;2023-04-24T07:55:18;5.70;;;0.90;;
47025;SDS011;32783;51.756;-2.556;2023-04-24T07:57:43;1.20;;;1.10;;
47025;SDS011;32783;51.756;-2.556;2023-04-24T08:00:09;1.83;;;1.30;;
47025;SDS011;32783;51.756;-2.556;2023-04-24T08:02:35;1.60;;;1.20;;
47025;SDS011;32783;51.756;-2.556;2023-04-24T08:05:01;5.72;;;1.63;;
47025;SDS011;32783;51.756;-2.556;2023-04-24T08:07:28;2.90;;;1.60;;
47025;SDS011;32783;51.756;-2.556;2023-04-24T08:09:53;1.73;;;1.20;;
47025;SDS011;32783;51.756;-2.556;2023-04-24T08:12:18;2.78;;;1.50;;
47025;SDS011;32783;51.756;-2.556;2023-04-24T08:14:44;1.35;;;1.05;;
47025;SDS011;32783;51.756;-2.556;2023-04-24T08:17:09;1.95;;;1.40;;
47025;SDS011;32783;51.756;-2.556;2023-04-24T08:19:35;5.93;;;2.33;;
47025;SDS011;32783;51.756;-2.556;2023-04-24T08:22:00;3.55;;;1.60;;
47025;SDS011;32783;51.756;-2.556;2023-04-24T08:24:26;2.05;;;1.30;;
47025;SDS011;32783;51.756;-2.556;2023-04-24T08:26:51;3.58;;;1.50;;
47025;SDS011;32783;51.756;-2.556;2023-04-24T08:29:19;1.65;;;1.40;;
47025;SDS011;32783;51.756;-2.556;2023-04-24T08:31:44;1.98;;;1.20;;
47025;SDS011;32783;51.756;-2.556;2023-04-24T08:34:10;1.67;;;1.42;;
47025;SDS011;32783;51.756;-2.556;2023-04-24T08:36:36;1.95;;;1.67;;
47025;SDS011;32783;51.756;-2.556;2023-04-24T08:39:01;3.42;;;1.50;;
47025;SDS011;32783;51.756;-2.556;2023-04-24T08:41:27;1.58;;;1.40;;
47025;SDS011;32783;51.756;-2.556;2023-04-24T08:43:52;4.20;;;2.53;;
47025;SDS011;32783;51.756;-2.556;2023-04-24T08:46:18;1.42;;;1.20;;
47025;SDS011;32783;51.756;-2.556;2023-04-24T08:48:44;4.50;;;2.10;;
47025;SDS011;32783;51.756;-2.556;2023-04-24T08:51:10;5.97;;;1.58;;
47025;SDS011;32783;51.756;-2.556;2023-04-24T08:53:36;6.18;;;1.70;;
47025;SDS011;32783;51.756;-2.556;2023-04-24T08:56:01;3.33;;;1.80;;
47025;SDS011;32783;51.756;-2.556;2023-04-24T08:58:27;4.47;;;1.80;;
47025;SDS011;32783;51.756;-2.556;2023-04-24T09:00:57;3.92;;;1.70;;
47025;SDS011;32783;51.756;-2.556;2023-04-24T09:03:23;8.48;;;1.48;;
47025;SDS011;32783;51.756;-2.556;2023-04-24T09:05:49;4.03;;;1.80;;
47025;SDS011;32783;51.756;-2.556;2023-04-24T09:08:18;3.20;;;1.77;;
47025;SDS011;32783;51.756;-2.556;2023-04-24T09:10:44;2.83;;;2.05;;
47025;SDS011;32783;51.756;-2.556;2023-04-24T09:13:10;2.70;;;1.63;;
47025;SDS011;32783;51.756;-2.556;2023-04-24T09:15:36;2.38;;;1.70;;
47025;SDS011;32783;51.756;-2.556;2023-04-24T09:18:04;3.10;;;1.77;;
47025;SDS011;32783;51.756;-2.556;2023-04-24T09:20:29;4.80;;;1.30;;
47025;SDS011;32783;51.756;-2.556;2023-04-24T09:22:59;2.55;;;1.80;;
47025;SDS011;32783;51.756;-2.556;2023-04-24T09:25:34;2.40;;;2.10;;
47025;SDS011;32783;51.756;-2.556;2023-04-24T09:28:03;3.07;;;1.70;;
47025;SDS011;32783;51.756;-2.556;2023-04-24T09:30:29;2.25;;;2.03;;
47025;SDS011;32783;51.756;-2.556;2023-04-24T09:33:13;2.70;;;1.65;;
47025;SDS011;32783;51.756;-2.556;2023-04-24T09:35:50;3.50;;;1.80;;
47025;SDS011;32783;51.756;-2.556;2023-04-24T09:38:16;3.30;;;1.63;;
47025;SDS011;32783;51.756;-2.556;2023-04-24T09:40:42;3.53;;;1.55;;
47025;SDS011;32783;51.756;-2.556;2023-04-24T09:43:10;2.33;;;1.50;;
47025;SDS011;32783;51.756;-2.556;2023-04-24T09:45:36;1.77;;;1.30;;
47025;SDS011;32783;51.756;-2.556;2023-04-24T09:48:02;2.03;;;1.83;;
47025;SDS011;32783;51.756;-2.556;2023-04-24T09:50:29;5.28;;;1.83;;
47025;SDS011;32783;51.756;-2.556;2023-04-24T09:52:57;2.80;;;1.73;;
47025;SDS011;32783;51.756;-2.556;2023-04-24T09:55:23;2.35;;;1.48;;
47025;SDS011;32783;51.756;-2.556;2023-04-24T09:57:51;1.58;;;1.48;;
47025;SDS011;32783;51.756;-2.556;2023-04-24T10:00:26;3.55;;;1.70;;
47025;SDS011;32783;51.756;-2.556;2023-04-24T10:02:56;1.63;;;1.35;;
47025;SDS011;32783;51.756;-2.556;2023-04-24T10:08:02;3.90;;;1.75;;
47025;SDS011;32783;51.756;-2.556;2023-04-24T10:10:29;4.18;;;1.75;;
47025;SDS011;32783;51.756;-2.556;2023-04-24T10:12:55;2.35;;;1.40;;
47025;SDS011;32783;51.756;-2.556;2023-04-24T10:15:21;7.80;;;3.03;;
47025;SDS011;32783;51.756;-2.556;2023-04-24T10:17:47;2.25;;;1.73;;
47025;SDS011;32783;51.756;-2.556;2023-04-24T10:20:20;4.93;;;1.60;;
47025;SDS011;32783;51.756;-2.556;2023-04-24T10:22:51;3.63;;;1.83;;
47025;SDS011;32783;51.756;-2.556;2023-04-24T10:25:18;1.77;;;1.23;;
47025;SDS011;32783;51.756;-2.556;2023-04-24T10:27:45;1.77;;;1.40;;
47025;SDS011;32783;51.756;-2.556;2023-04-24T10:30:12;2.45;;;1.48;;
47025;SDS011;32783;51.756;-2.556;2023-04-24T10:32:38;7.97;;;1.73;;
47025;SDS011;32783;51.756;-2.556;2023-04-24T10:35:03;2.83;;;1.48;;
47025;SDS011;32783;51.756;-2.556;2023-04-24T10:37:29;2.75;;;1.20;;
47025;SDS011;32783;51.756;-2.556;2023-04-24T10:40:00;4.28;;;1.50;;
47025;SDS011;32783;51.756;-2.556;2023-04-24T10:42:27;5.85;;;1.58;;
47025;SDS011;32783;51.756;-2.556;2023-04-24T10:44:52;3.10;;;1.40;;
47025;SDS011;32783;51.756;-2.556;2023-04-24T10:47:19;2.63;;;1.30;;
47025;SDS011;32783;51.756;-2.556;2023-04-24T10:49:44;2.88;;;1.10;;
47025;SDS011;32783;51.756;-2.556;2023-04-24T10:52:10;4.07;;;1.40;;
47025;SDS011;32783;51.756;-2.556;2023-04-24T10:54:46;2.42;;;1.25;;
47025;SDS011;32783;51.756;-2.556;2023-04-24T10:59:47;1.92;;;1.55;;
47025;SDS011;32783;51.756;-2.556;2023-04-24T11:02:37;1.83;;;1.20;;
47025;SDS011;32783;51.756;-2.556;2023-04-24T11:05:03;1.77;;;1.17;;
47025;SDS011;32783;51.756;-2.556;2023-04-24T11:07:29;2.03;;;1.25;;
47025;SDS011;32783;51.756;-2.556;2023-04-24T11:09:58;3.92;;;1.10;;
47025;SDS011;32783;51.756;-2.556;2023-04-24T11:12:24;2.70;;;1.17;;
47025;SDS011;32783;51.756;-2.556;2023-04-24T11:14:59;1.33;;;1.00;;
47025;SDS011;32783;51.756;-2.556;2023-04-24T11:17:35;1.85;;;1.23;;
47025;SDS011;32783;51.756;-2.556;2023-04-24T11:20:11;2.20;;;1.48;;
47025;SDS011;32783;51.756;-2.556;2023-04-24T11:22:42;2.88;;;1.20;;
47025;SDS011;32783;51.756;-2.556;2023-04-24T11:25:08;2.95;;;1.10;;
47025;SDS011;32783;51.756;-2.556;2023-04-24T11:27:43;2.10;;;1.17;;
47025;SDS011;32783;51.756;-2.556;2023-04-24T11:30:11;1.40;;;1.25;;
47025;SDS011;32783;51.756;-2.556;2023-04-24T11:32:40;1.63;;;1.25;;
47025;SDS011;32783;51.756;-2.556;2023-04-24T11:35:08;1.40;;;1.00;;
47025;SDS011;32783;51.756;-2.556;2023-04-24T11:37:36;3.58;;;1.42;;
47025;SDS011;32783;51.756;-2.556;2023-04-24T11:40:03;1.95;;;1.17;;
47025;SDS011;32783;51.756;-2.556;2023-04-24T11:42:36;4.55;;;1.30;;
47025;SDS011;32783;51.756;-2.556;2023-04-24T11:45:07;2.30;;;1.10;;
47025;SDS011;32783;51.756;-2.556;2023-04-24T11:47:36;1.40;;;1.10;;
47025;SDS011;32783;51.756;-2.556;2023-04-24T11:50:03;2.55;;;1.30;;
47025;SDS011;32783;51.756;-2.556;2023-04-24T11:52:30;1.70;;;1.13;;
47025;SDS011;32783;51.756;-2.556;2023-04-24T11:54:55;1.42;;;1.27;;
47025;SDS011;32783;51.756;-2.556;2023-04-24T11:57:21;2.03;;;1.20;;
47025;SDS011;32783;51.756;-2.556;2023-04-24T11:59:49;1.60;;;1.10;;
47025;SDS011;32783;51.756;-2.556;2023-04-24T12:02:21;2.28;;;1.48;;
47025;SDS011;32783;51.756;-2.556;2023-04-24T12:04:50;1.52;;;1.25;;
47025;SDS011;32783;51.756;-2.556;2023-04-24T12:07:16;1.88;;;1.10;;
47025;SDS011;32783;51.756;-2.556;2023-04-24T12:09:45;3.40;;;1.50;;
47025;SDS011;32783;51.756;-2.556;2023-04-24T12:12:12;4.22;;;1.27;;
47025;SDS011;32783;51.756;-2.556;2023-04-24T12:14:42;1.20;;;0.90;;
47025;SDS011;32783;51.756;-2.556;2023-04-24T12:17:08;3.00;;;1.00;;
47025;SDS011;32783;51.756;-2.556;2023-04-24T12:19:33;3.40;;;0.98;;
47025;SDS011;32783;51.756;-2.556;2023-04-24T12:22:03;4.50;;;1.40;;
47025;SDS011;32783;51.756;-2.556;2023-04-24T12:24:30;2.75;;;1.17;;
47025;SDS011;32783;51.756;-2.556;2023-04-24T12:26:55;2.13;;;1.15;;
47025;SDS011;32783;51.756;-2.556;2023-04-24T12:29:22;1.83;;;1.17;;
47025;SDS011;32783;51.756;-2.556;2023-04-24T12:31:47;1.20;;;0.90;;
47025;SDS011;32783;51.756;-2.556;2023-04-24T12:34:23;2.10;;;0.93;;
47025;SDS011;32783;51.756;-2.556;2023-04-24T12:36:49;1.52;;;1.00;;
47025;SDS011;32783;51.756;-2.556;2023-04-24T12:39:16;2.53;;;0.93;;
47025;SDS011;32783;51.756;-2.556;2023-04-24T12:41:55;1.80;;;1.00;;
47025;SDS011;32783;51.756;-2.556;2023-04-24T12:44:31;3.65;;;0.90;;
47025;SDS011;32783;51.756;-2.556;2023-04-24T12:49:22;3.28;;;1.02;;
47025;SDS011;32783;51.756;-2.556;2023-04-24T12:51:48;1.40;;;0.90;;
47025;SDS011;32783;51.756;-2.556;2023-04-24T12:54:13;1.35;;;0.88;;
47025;SDS011;32783;51.756;-2.556;2023-04-24T12:56:39;1.25;;;0.70;;
47025;SDS011;32783;51.756;-2.556;2023-04-24T12:59:04;2.35;;;0.90;;
47025;SDS011;32783;51.756;-2.556;2023-04-24T13:01:30;1.35;;;1.00;;
47025;SDS011;32783;51.756;-2.556;2023-04-24T13:03:56;2.05;;;0.80;;
47025;SDS011;32783;51.756;-2.556;2023-04-24T13:06:21;1.23;;;0.80;;
47025;SDS011;32783;51.756;-2.556;2023-04-24T13:08:46;2.97;;;1.00;;
47025;SDS011;32783;51.756;-2.556;2023-04-24T13:11:13;1.15;;;0.73;;
47025;SDS011;32783;51.756;-2.556;2023-04-24T13:13:38;0.90;;;0.80;;
47025;SDS011;32783;51.756;-2.556;2023-04-24T13:16:04;1.40;;;0.95;;
47025;SDS011;32783;51.756;-2.556;2023-04-24T13:18:30;1.20;;;1.10;;
47025;SDS011;32783;51.756;-2.556;2023-04-24T13:20:55;2.50;;;0.88;;
47025;SDS011;32783;51.756;-2.556;2023-04-24T13:23:21;1.27;;;0.90;;
47025;SDS011;32783;51.756;-2.556;2023-04-24T13:25:47;1.33;;;0.98;;
47025;SDS011;32783;51.756;-2.556;2023-04-24T13:28:13;1.23;;;0.70;;
47025;SDS011;32783;51.756;-2.556;2023-04-24T13:30:38;1.50;;;0.90;;
47025;SDS011;32783;51.756;-2.556;2023-04-24T13:33:04;1.10;;;0.75;;
47025;SDS011;32783;51.756;-2.556;2023-04-24T13:35:30;1.00;;;0.85;;
47025;SDS011;32783;51.756;-2.556;2023-04-24T13:37:57;1.33;;;1.02;;
47025;SDS011;32783;51.756;-2.556;2023-04-24T13:40:22;0.90;;;0.70;;
47025;SDS011;32783;51.756;-2.556;2023-04-24T13:42:48;1.30;;;0.85;;
47025;SDS011;32783;51.756;-2.556;2023-04-24T13:45:13;1.25;;;0.70;;
47025;SDS011;32783;51.756;-2.556;2023-04-24T13:47:39;1.30;;;0.63;;
47025;SDS011;32783;51.756;-2.556;2023-04-24T13:50:06;2.15;;;1.85;;
47025;SDS011;32783;51.756;-2.556;2023-04-24T13:52:33;1.92;;;0.85;;
47025;SDS011;32783;51.756;-2.556;2023-04-24T13:54:58;1.27;;;0.77;;
47025;SDS011;32783;51.756;-2.556;2023-04-24T13:57:24;1.35;;;0.85;;
47025;SDS011;32783;51.756;-2.556;2023-04-24T13:59:50;1.70;;;0.82;;
47025;SDS011;32783;51.756;-2.556;2023-04-24T14:02:15;2.88;;;1.00;;
47025;SDS011;32783;51.756;-2.556;2023-04-24T14:04:40;1.42;;;0.68;;
47025;SDS011;32783;51.756;-2.556;2023-04-24T14:07:06;2.30;;;1.00;;
47025;SDS011;32783;51.756;-2.556;2023-04-24T14:09:33;1.23;;;0.80;;
47025;SDS011;32783;51.756;-2.556;2023-04-24T14:11:58;0.90;;;0.70;;
47025;SDS011;32783;51.756;-2.556;2023-04-24T14:14:24;1.70;;;0.82;;
47025;SDS011;32783;51.756;-2.556;2023-04-24T14:16:49;2.40;;;1.30;;
47025;SDS011;32783;51.756;-2.556;2023-04-24T14:19:15;1.42;;;0.80;;
47025;SDS011;32783;51.756;-2.556;2023-04-24T14:21:40;1.75;;;0.98;;
47025;SDS011;32783;51.756;-2.556;2023-04-24T14:24:05;1.05;;;0.70;;
47025;SDS011;32783;51.756;-2.556;2023-04-24T14:26:31;1.30;;;0.70;;
47025;SDS011;32783;51.756;-2.556;2023-04-24T14:28:57;1.10;;;0.60;;
47025;SDS011;32783;51.756;-2.556;2023-04-24T14:31:23;1.08;;;0.80;;
47025;SDS011;32783;51.756;-2.556;2023-04-24T14:33:49;2.15;;;0.90;;
47025;SDS011;32783;51.756;-2.556;2023-04-24T14:36:14;3.33;;;1.10;;